Time;durP1;ratioP1;P1;durP2;ratioP2;P2;SDS_P1;SDS_P2;PMS_P1;PMS_P2;Temp;Humidity;BMP_temperature;BMP_pressure;BME280_temperature;BME280_humidity;BME280_pressure;Samples;Min_cycle;Max_cycle;Signal;HPM_P1;HPM_P2
2023/02/19 00:00:00;;;;;;;1.08;0.60;;;;;;;;;;5042911;28;20128;-50
2023/02/19 00:02:26;;;;;;;0.73;0.52;;;;;;;;;;5041233;28;20037;-52
2023/02/19 00:04:51;;;;;;;1.13;0.70;;;;;;;;;;5044032;28;20021;-49
2023/02/19 00:07:17;;;;;;;1.00;0.88;;;;;;;;;;5037384;28;20047;-52
2023/02/19 00:09:43;;;;;;;0.68;0.57;;;;;;;;;;5039750;28;20021;-49
2023/02/19 00:12:09;;;;;;;0.63;0.60;;;;;;;;;;5043419;28;20462;-50
2023/02/19 00:14:35;;;;;;;0.60;0.50;;;;;;;;;;5042646;28;20053;-47
2023/02/19 00:17:01;;;;;;;0.60;0.50;;;;;;;;;;5044203;28;20067;-51
2023/02/19 00:19:27;;;;;;;0.52;0.38;;;;;;;;;;5042389;28;20073;-47
2023/02/19 00:21:53;;;;;;;0.68;0.57;;;;;;;;;;5047662;28;20075;-49
2023/02/19 00:24:20;;;;;;;0.65;0.57;;;;;;;;;;5037282;28;20025;-47
2023/02/19 00:26:46;;;;;;;0.70;0.50;;;;;;;;;;5043254;28;20028;-49
2023/02/19 00:29:13;;;;;;;1.50;0.60;;;;;;;;;;5036544;28;20635;-48
2023/02/19 00:31:39;;;;;;;1.10;0.60;;;;;;;;;;5042329;28;20117;-48
2023/02/19 00:34:05;;;;;;;1.30;0.70;;;;;;;;;;5039610;28;20132;-47
2023/02/19 00:36:34;;;;;;;0.57;0.50;;;;;;;;;;5037975;28;20033;-48
2023/02/19 00:39:00;;;;;;;1.10;0.73;;;;;;;;;;5041144;28;20825;-47
2023/02/19 00:41:27;;;;;;;0.40;0.40;;;;;;;;;;5051541;28;20058;-47
2023/02/19 00:44:01;;;;;;;1.60;0.60;;;;;;;;;;5039645;28;20036;-48
2023/02/19 00:46:27;;;;;;;0.95;0.60;;;;;;;;;;5041202;28;20427;-47
2023/02/19 00:48:53;;;;;;;0.80;0.43;;;;;;;;;;5039197;28;20239;-49
2023/02/19 00:51:20;;;;;;;0.50;0.40;;;;;;;;;;5045705;28;20028;-49
2023/02/19 00:53:46;;;;;;;0.88;0.55;;;;;;;;;;5027724;28;20108;-50
2023/02/19 00:56:12;;;;;;;0.60;0.52;;;;;;;;;;5041222;28;20498;-49
2023/02/19 00:58:38;;;;;;;0.60;0.40;;;;;;;;;;5042224;28;20037;-47
2023/02/19 01:01:05;;;;;;;1.20;0.50;;;;;;;;;;5045706;28;20036;-49
2023/02/19 01:03:31;;;;;;;0.88;0.57;;;;;;;;;;5042962;28;20033;-49
2023/02/19 01:05:57;;;;;;;0.75;0.40;;;;;;;;;;5045235;28;20044;-49
2023/02/19 01:08:23;;;;;;;1.15;0.75;;;;;;;;;;5042229;28;20029;-51
2023/02/19 01:10:49;;;;;;;0.65;0.40;;;;;;;;;;5037210;28;20029;-51
2023/02/19 01:13:16;;;;;;;0.80;0.57;;;;;;;;;;5035891;28;20024;-49
2023/02/19 01:15:42;;;;;;;0.50;0.40;;;;;;;;;;5041607;28;20017;-52
2023/02/19 01:18:08;;;;;;;0.50;0.40;;;;;;;;;;5034085;28;20032;-50
2023/02/19 01:20:34;;;;;;;0.63;0.40;;;;;;;;;;5043725;28;20111;-49
2023/02/19 01:23:00;;;;;;;0.60;0.40;;;;;;;;;;5049019;28;20021;-48
2023/02/19 01:25:26;;;;;;;0.70;0.68;;;;;;;;;;5040352;28;20068;-48
2023/02/19 01:27:52;;;;;;;1.15;0.50;;;;;;;;;;5036110;28;20073;-50
2023/02/19 01:30:18;;;;;;;0.68;0.45;;;;;;;;;;5036436;28;20064;-51
2023/02/19 01:32:44;;;;;;;0.60;0.50;;;;;;;;;;5041610;28;20028;-51
2023/02/19 01:35:10;;;;;;;0.77;0.55;;;;;;;;;;5039361;28;20463;-47
2023/02/19 01:37:36;;;;;;;1.42;0.60;;;;;;;;;;5039773;28;20116;-48
2023/02/19 01:40:02;;;;;;;0.80;0.50;;;;;;;;;;5036357;28;20025;-48
2023/02/19 01:42:28;;;;;;;0.50;0.40;;;;;;;;;;5042358;28;20033;-50
2023/02/19 01:44:54;;;;;;;0.65;0.52;;;;;;;;;;5044162;28;20091;-51
2023/02/19 01:47:20;;;;;;;2.28;0.50;;;;;;;;;;5042236;28;20120;-51
2023/02/19 01:49:49;;;;;;;0.73;0.60;;;;;;;;;;5038024;28;20037;-47
2023/02/19 01:52:25;;;;;;;0.60;0.50;;;;;;;;;;5035782;28;20030;-48
2023/02/19 01:54:51;;;;;;;0.63;0.50;;;;;;;;;;5045862;28;20025;-51
2023/02/19 01:57:21;;;;;;;0.50;0.50;;;;;;;;;;5050284;28;20441;-49
2023/02/19 01:59:49;;;;;;;0.43;0.30;;;;;;;;;;5044422;28;20021;-49
2023/02/19 02:02:15;;;;;;;0.90;0.50;;;;;;;;;;5045364;28;20025;-47
2023/02/19 02:04:41;;;;;;;0.70;0.50;;;;;;;;;;5037086;28;20021;-49
2023/02/19 02:10:18;;;;;;;0.52;0.43;;;;;;;;;;5040690;28;20048;-50
2023/02/19 02:12:38;;;;;;;0.47;0.38;;;;;;;;;;5037551;28;20037;-47
2023/02/19 02:15:04;;;;;;;0.57;0.30;;;;;;;;;;5044941;28;20033;-52
2023/02/19 02:17:33;;;;;;;0.50;0.40;;;;;;;;;;5038036;28;20034;-53
2023/02/19 02:19:59;;;;;;;0.70;0.40;;;;;;;;;;5048781;28;20033;-51
2023/02/19 02:22:31;;;;;;;0.80;0.65;;;;;;;;;;5044816;28;20036;-52
2023/02/19 02:25:11;;;;;;;0.55;0.40;;;;;;;;;;5044424;28;20021;-49
2023/02/19 02:27:49;;;;;;;0.60;0.60;;;;;;;;;;5041701;28;20036;-48
2023/02/19 02:30:29;;;;;;;0.70;0.65;;;;;;;;;;5046978;28;20021;-48
2023/02/19 02:32:59;;;;;;;0.30;0.30;;;;;;;;;;5041970;28;20036;-48
2023/02/19 02:35:28;;;;;;;2.08;1.35;;;;;;;;;;5052777;28;20035;-48
2023/02/19 02:37:56;;;;;;;0.60;0.35;;;;;;;;;;5051192;28;20024;-48
2023/02/19 02:40:22;;;;;;;0.63;0.55;;;;;;;;;;5049228;28;20409;-48
2023/02/19 02:42:48;;;;;;;0.73;0.43;;;;;;;;;;5043521;28;20029;-53
2023/02/19 02:45:35;;;;;;;1.98;0.50;;;;;;;;;;5049121;28;20025;-49
2023/02/19 02:48:05;;;;;;;0.40;0.30;;;;;;;;;;5053386;28;20025;-48
2023/02/19 02:50:41;;;;;;;0.70;0.30;;;;;;;;;;5046602;28;20359;-49
2023/02/19 02:55:55;;;;;;;0.60;0.60;;;;;;;;;;5043044;28;20095;-49
2023/02/19 02:58:23;;;;;;;0.30;0.30;;;;;;;;;;5038193;28;20036;-48
2023/02/19 03:03:39;;;;;;;0.82;0.40;;;;;;;;;;5038349;28;20032;-49
2023/02/19 03:06:06;;;;;;;0.40;0.30;;;;;;;;;;5049330;28;20171;-48
2023/02/19 03:08:55;;;;;;;0.20;0.20;;;;;;;;;;5053442;28;20029;-48
2023/02/19 03:19:58;;;;;;;0.30;0.30;;;;;;;;;;5052713;28;20065;-49
2023/02/19 03:22:32;;;;;;;0.35;0.35;;;;;;;;;;5050655;28;20017;-49
2023/02/19 03:27:57;;;;;;;0.40;0.40;;;;;;;;;;5048042;28;20040;-48
2023/02/19 03:30:24;;;;;;;0.40;0.40;;;;;;;;;;5047919;28;20056;-51
2023/02/19 03:32:53;;;;;;;0.38;0.30;;;;;;;;;;5039039;28;20036;-46
2023/02/19 03:35:22;;;;;;;0.40;0.40;;;;;;;;;;5041275;28;20076;-52
2023/02/19 03:37:55;;;;;;;0.20;0.20;;;;;;;;;;5051489;28;20029;-48
2023/02/19 03:40:22;;;;;;;0.50;0.50;;;;;;;;;;5047642;28;20068;-50
2023/02/19 03:42:58;;;;;;;0.40;0.30;;;;;;;;;;5043505;28;20033;-52
2023/02/19 03:45:44;;;;;;;0.40;0.40;;;;;;;;;;5039010;28;20031;-52
2023/02/19 03:48:27;;;;;;;0.30;0.30;;;;;;;;;;5036734;28;20052;-52
2023/02/19 03:50:52;;;;;;;;;;;;;;;;;;5040085;28;20025;-50
2023/02/19 03:53:29;;;;;;;0.50;0.40;;;;;;;;;;5036791;28;19916;-52
2023/02/19 03:56:04;;;;;;;0.75;0.43;;;;;;;;;;5037607;28;20839;-50
2023/02/19 03:58:40;;;;;;;0.70;0.35;;;;;;;;;;5039100;28;20029;-52
2023/02/19 04:01:08;;;;;;;0.35;0.35;;;;;;;;;;5042939;28;20026;-52
2023/02/19 04:03:40;;;;;;;0.32;0.32;;;;;;;;;;5047875;28;20036;-51
2023/02/19 04:06:11;;;;;;;0.32;0.30;;;;;;;;;;5049690;28;20116;-51
2023/02/19 04:08:38;;;;;;;0.90;0.30;;;;;;;;;;5036601;28;20595;-50
2023/02/19 04:11:05;;;;;;;0.75;0.40;;;;;;;;;;5040400;28;20052;-51
2023/02/19 04:13:54;;;;;;;0.75;0.57;;;;;;;;;;5041942;28;20026;-52
2023/02/19 04:16:22;;;;;;;0.30;0.30;;;;;;;;;;5043643;28;20028;-50
2023/02/19 04:18:51;;;;;;;0.63;0.47;;;;;;;;;;5043223;28;20021;-50
2023/02/19 04:21:18;;;;;;;0.95;0.40;;;;;;;;;;5044087;28;20079;-49
2023/02/19 04:23:45;;;;;;;0.55;0.30;;;;;;;;;;5043502;28;20032;-52
2023/02/19 04:26:12;;;;;;;0.47;0.30;;;;;;;;;;5044455;28;20057;-51
2023/02/19 04:28:38;;;;;;;0.57;0.40;;;;;;;;;;5044245;28;20033;-52
2023/02/19 04:31:04;;;;;;;0.75;0.30;;;;;;;;;;5043964;28;20061;-49
2023/02/19 04:33:30;;;;;;;0.40;0.40;;;;;;;;;;5042382;28;20035;-52
2023/02/19 04:35:56;;;;;;;0.47;0.30;;;;;;;;;;5040144;28;20209;-49
2023/02/19 04:38:22;;;;;;;0.30;0.30;;;;;;;;;;5046208;28;20377;-48
2023/02/19 04:40:50;;;;;;;0.90;0.40;;;;;;;;;;5048558;28;20033;-52
2023/02/19 04:43:16;;;;;;;0.63;0.35;;;;;;;;;;5042333;28;20067;-48
2023/02/19 04:45:42;;;;;;;0.30;0.30;;;;;;;;;;5032764;28;20029;-50
2023/02/19 04:48:08;;;;;;;0.40;0.40;;;;;;;;;;5046695;28;20029;-52
2023/02/19 04:50:34;;;;;;;0.35;0.30;;;;;;;;;;5028082;28;20033;-48
2023/02/19 04:53:00;;;;;;;0.43;0.38;;;;;;;;;;5037634;28;20032;-48
2023/02/19 04:55:26;;;;;;;0.35;0.30;;;;;;;;;;5041040;28;20033;-50
2023/02/19 04:57:52;;;;;;;0.40;0.40;;;;;;;;;;5047318;28;20104;-52
2023/02/19 05:00:18;;;;;;;0.30;0.30;;;;;;;;;;5044218;28;20029;-48
2023/02/19 05:11:41;;;;;;;0.60;0.25;;;;;;;;;;5473168;23;19920;31
2023/02/19 05:14:07;;;;;;;0.43;0.35;;;;;;;;;;4951537;28;20066;-52
2023/02/19 05:16:33;;;;;;;0.32;0.28;;;;;;;;;;4966096;28;20170;-51
2023/02/19 05:18:59;;;;;;;0.60;0.40;;;;;;;;;;4965643;28;20070;-50
2023/02/19 05:21:25;;;;;;;0.57;0.40;;;;;;;;;;4971457;28;20034;-53
2023/02/19 05:23:51;;;;;;;0.30;0.30;;;;;;;;;;4969313;28;20019;-51
2023/02/19 05:26:19;;;;;;;0.38;0.32;;;;;;;;;;4970979;28;20375;-50
2023/02/19 05:28:46;;;;;;;0.30;0.20;;;;;;;;;;4974914;28;20125;-50
2023/02/19 05:31:12;;;;;;;0.30;0.30;;;;;;;;;;4971862;28;20023;-51
2023/02/19 05:33:38;;;;;;;0.30;0.30;;;;;;;;;;4970573;28;20077;-51
2023/02/19 05:36:08;;;;;;;0.28;0.28;;;;;;;;;;4970935;28;20122;-49
2023/02/19 05:38:35;;;;;;;0.57;0.30;;;;;;;;;;4970339;28;20475;-47
2023/02/19 05:41:27;;;;;;;0.63;0.63;;;;;;;;;;4973410;28;20035;-53
2023/02/19 05:43:53;;;;;;;1.10;0.30;;;;;;;;;;4967578;28;20043;-52
2023/02/19 05:46:21;;;;;;;0.20;0.20;;;;;;;;;;4970964;28;20031;-51
2023/02/19 05:48:47;;;;;;;0.45;0.32;;;;;;;;;;4969902;28;20038;-49
2023/02/19 05:51:15;;;;;;;0.40;0.30;;;;;;;;;;4971835;28;20125;-50
2023/02/19 05:53:41;;;;;;;0.28;0.20;;;;;;;;;;4970386;28;20375;-48
2023/02/19 05:56:16;;;;;;;0.30;0.30;;;;;;;;;;4971977;28;20034;-51
2023/02/19 05:58:42;;;;;;;0.35;0.32;;;;;;;;;;4973722;28;20034;-50
2023/02/19 06:01:14;;;;;;;0.20;0.20;;;;;;;;;;4975644;28;20113;-48
2023/02/19 06:03:40;;;;;;;0.10;0.10;;;;;;;;;;4974205;28;20018;-50
2023/02/19 06:06:06;;;;;;;0.28;0.28;;;;;;;;;;4974316;28;20506;-49
2023/02/19 06:08:32;;;;;;;0.20;0.20;;;;;;;;;;4975146;28;20056;-51
2023/02/19 06:10:58;;;;;;;0.32;0.30;;;;;;;;;;4974027;28;20543;-49
2023/02/19 06:13:24;;;;;;;0.20;0.20;;;;;;;;;;4975196;28;20053;-50
2023/02/19 06:15:50;;;;;;;0.20;0.20;;;;;;;;;;4974575;28;20101;-50
2023/02/19 06:18:16;;;;;;;0.50;0.30;;;;;;;;;;4974593;28;20035;-50
2023/02/19 06:20:42;;;;;;;0.50;0.30;;;;;;;;;;4974148;28;20102;-49
2023/02/19 06:23:08;;;;;;;0.47;0.30;;;;;;;;;;4970871;28;20031;-51
2023/02/19 06:25:34;;;;;;;0.20;0.20;;;;;;;;;;4968308;28;20037;-48
2023/02/19 06:28:00;;;;;;;0.52;0.50;;;;;;;;;;4975351;28;20089;-49
2023/02/19 06:30:26;;;;;;;0.32;0.30;;;;;;;;;;4969599;28;20110;-50
2023/02/19 06:32:52;;;;;;;0.50;0.40;;;;;;;;;;4968979;28;20110;-50
2023/02/19 06:35:18;;;;;;;0.50;0.22;;;;;;;;;;4974501;28;20535;-49
2023/02/19 06:37:46;;;;;;;0.20;0.20;;;;;;;;;;4974048;28;20498;-48
2023/02/19 06:40:12;;;;;;;0.20;0.20;;;;;;;;;;4974302;28;20407;-49
2023/02/19 06:42:38;;;;;;;0.20;0.20;;;;;;;;;;4973941;28;20058;-47
2023/02/19 06:45:04;;;;;;;0.20;0.20;;;;;;;;;;4974709;28;20417;-48
2023/02/19 06:47:31;;;;;;;0.30;0.30;;;;;;;;;;4961432;28;20043;-48
2023/02/19 06:49:57;;;;;;;0.63;0.20;;;;;;;;;;4973226;28;20115;-51
2023/02/19 06:52:23;;;;;;;0.30;0.30;;;;;;;;;;4974005;28;20058;-52
2023/02/19 06:54:49;;;;;;;0.45;0.22;;;;;;;;;;4975084;28;20426;-51
2023/02/19 06:57:15;;;;;;;0.47;0.47;;;;;;;;;;4974342;28;20031;-50
2023/02/19 06:59:41;;;;;;;1.30;0.30;;;;;;;;;;4972592;28;20146;-51
2023/02/19 07:02:09;;;;;;;0.20;0.20;;;;;;;;;;4974310;28;20169;-52
2023/02/19 07:04:35;;;;;;;0.65;0.20;;;;;;;;;;4973654;28;20027;-49
2023/02/19 07:07:01;;;;;;;0.25;0.25;;;;;;;;;;4973423;28;20027;-52
2023/02/19 07:09:27;;;;;;;1.02;0.20;;;;;;;;;;4973431;28;20046;-50
2023/02/19 07:11:54;;;;;;;0.30;0.30;;;;;;;;;;4976062;28;20050;-51
2023/02/19 07:14:20;;;;;;;0.25;0.20;;;;;;;;;;4966185;28;20490;-52
2023/02/19 07:16:46;;;;;;;1.55;0.30;;;;;;;;;;4964167;28;20022;-52
2023/02/19 07:19:13;;;;;;;0.20;0.20;;;;;;;;;;4966187;28;20158;-49
2023/02/19 07:21:41;;;;;;;0.20;0.20;;;;;;;;;;4958247;28;20027;-52
2023/02/19 07:24:07;;;;;;;0.20;0.20;;;;;;;;;;4967839;28;20051;-48
2023/02/19 07:26:33;;;;;;;1.40;0.60;;;;;;;;;;4959325;28;20090;-49
2023/02/19 07:28:59;;;;;;;0.50;0.20;;;;;;;;;;4960909;28;20483;-49
2023/02/19 07:31:25;;;;;;;0.20;0.20;;;;;;;;;;4959646;28;20512;-51
2023/02/19 07:33:51;;;;;;;0.35;0.30;;;;;;;;;;4955733;28;20031;-49
2023/02/19 07:36:18;;;;;;;0.28;0.20;;;;;;;;;;4960784;28;20024;-53
2023/02/19 07:38:44;;;;;;;0.20;0.20;;;;;;;;;;4959254;28;20074;-51
2023/02/19 07:41:10;;;;;;;0.40;0.20;;;;;;;;;;4954952;28;20035;-52
2023/02/19 07:43:37;;;;;;;0.40;0.20;;;;;;;;;;4958983;28;20047;-50
2023/02/19 07:46:04;;;;;;;0.20;0.20;;;;;;;;;;4955796;28;20082;-52
2023/02/19 07:48:30;;;;;;;0.20;0.20;;;;;;;;;;4969646;28;20042;-49
2023/02/19 07:50:57;;;;;;;0.20;0.20;;;;;;;;;;4956980;28;20027;-48
2023/02/19 07:53:24;;;;;;;0.25;0.25;;;;;;;;;;4961899;28;20031;-49
2023/02/19 07:55:50;;;;;;;0.30;0.28;;;;;;;;;;4956683;28;20034;-51
2023/02/19 07:58:16;;;;;;;0.32;0.20;;;;;;;;;;4956657;28;20553;-51
2023/02/19 08:00:43;;;;;;;0.10;0.10;;;;;;;;;;4959375;28;20034;-50
2023/02/19 08:03:08;;;;;;;0.30;0.22;;;;;;;;;;4948314;28;20031;-49
2023/02/19 08:05:38;;;;;;;0.13;0.13;;;;;;;;;;4957881;28;20373;-49
2023/02/19 08:08:08;;;;;;;0.38;0.32;;;;;;;;;;4958002;28;20093;-50
2023/02/19 08:13:21;;;;;;;0.30;0.30;;;;;;;;;;4952519;28;20108;-49
2023/02/19 08:15:47;;;;;;;0.20;0.20;;;;;;;;;;4958498;28;20081;-49
2023/02/19 08:18:15;;;;;;;0.20;0.20;;;;;;;;;;4961667;28;20031;-49
2023/02/19 08:20:41;;;;;;;0.28;0.20;;;;;;;;;;4944631;28;20031;-48
2023/02/19 08:23:07;;;;;;;0.30;0.20;;;;;;;;;;4954203;28;20384;-49
2023/02/19 08:25:34;;;;;;;0.30;0.20;;;;;;;;;;4967318;28;20038;-50
2023/02/19 08:28:00;;;;;;;0.80;0.30;;;;;;;;;;4966658;28;20043;-48
2023/02/19 08:30:30;;;;;;;0.30;0.30;;;;;;;;;;4953448;28;20046;-50
2023/02/19 08:32:57;;;;;;;1.35;0.43;;;;;;;;;;4954325;28;20027;-49
2023/02/19 08:35:23;;;;;;;0.20;0.20;;;;;;;;;;4963022;28;20027;-51
2023/02/19 08:37:49;;;;;;;0.47;0.40;;;;;;;;;;4964715;28;20102;-49
2023/02/19 08:40:15;;;;;;;0.68;0.20;;;;;;;;;;4941673;28;21624;-50
2023/02/19 08:42:41;;;;;;;0.50;0.22;;;;;;;;;;4953895;28;20032;-53
2023/02/19 08:45:07;;;;;;;0.82;0.20;;;;;;;;;;4957091;28;20047;-51
2023/02/19 08:47:37;;;;;;;0.20;0.20;;;;;;;;;;4953714;28;20042;-51
2023/02/19 08:50:03;;;;;;;0.20;0.20;;;;;;;;;;4952412;28;20106;-54
2023/02/19 08:52:30;;;;;;;0.30;0.30;;;;;;;;;;4953431;28;20034;-52
2023/02/19 08:54:56;;;;;;;0.20;0.20;;;;;;;;;;4941883;28;20043;-51
2023/02/19 08:57:22;;;;;;;0.73;0.28;;;;;;;;;;4949937;28;20438;-50
2023/02/19 08:59:48;;;;;;;0.20;0.20;;;;;;;;;;4951044;28;20039;-49
2023/02/19 09:02:14;;;;;;;0.20;0.20;;;;;;;;;;4955516;28;20023;-51
2023/02/19 09:04:40;;;;;;;0.45;0.30;;;;;;;;;;4950049;28;20051;-49
2023/02/19 09:07:08;;;;;;;0.10;0.10;;;;;;;;;;4952433;28;20467;-49
2023/02/19 09:09:36;;;;;;;0.73;0.20;;;;;;;;;;4949355;28;20402;-52
2023/02/19 09:12:04;;;;;;;2.10;0.43;;;;;;;;;;4949844;28;20540;-51
2023/02/19 09:14:33;;;;;;;2.22;0.43;;;;;;;;;;4950993;28;20035;-51
2023/02/19 09:17:00;;;;;;;1.70;0.30;;;;;;;;;;4949915;28;20032;-49
2023/02/19 09:19:26;;;;;;;3.17;0.40;;;;;;;;;;4950398;28;20528;-51
2023/02/19 09:21:52;;;;;;;1.30;0.28;;;;;;;;;;4950676;29;20023;-48
2023/02/19 09:24:18;;;;;;;2.75;0.50;;;;;;;;;;4950583;28;20019;-48
2023/02/19 09:26:44;;;;;;;0.45;0.20;;;;;;;;;;4951043;29;20460;-52
2023/02/19 09:29:10;;;;;;;0.50;0.40;;;;;;;;;;4949790;29;20117;-53
2023/02/19 09:31:36;;;;;;;0.40;0.30;;;;;;;;;;4951338;28;20484;-51
2023/02/19 09:34:02;;;;;;;2.13;0.30;;;;;;;;;;4949819;29;20031;-50
2023/02/19 09:36:28;;;;;;;0.50;0.30;;;;;;;;;;4950925;28;20101;-52
2023/02/19 09:38:54;;;;;;;1.15;0.30;;;;;;;;;;4948261;29;20126;-50
2023/02/19 09:41:20;;;;;;;0.60;0.60;;;;;;;;;;4951223;28;20043;-50
2023/02/19 09:43:46;;;;;;;0.98;0.28;;;;;;;;;;4949904;29;20028;-50
2023/02/19 09:46:18;;;;;;;0.52;0.32;;;;;;;;;;4951705;29;20039;-52
2023/02/19 09:48:44;;;;;;;;;;;;;;;;;;4945372;29;20496;-51
2023/02/19 09:51:10;;;;;;;0.65;0.20;;;;;;;;;;4951459;29;19997;-48
2023/02/19 09:53:40;;;;;;;0.65;0.43;;;;;;;;;;4949405;29;20507;-48
2023/02/19 09:56:06;;;;;;;0.95;0.50;;;;;;;;;;4941349;28;20110;-49
2023/02/19 09:58:46;;;;;;;1.48;0.40;;;;;;;;;;4952370;28;20027;-52
2023/02/19 10:01:12;;;;;;;1.60;0.40;;;;;;;;;;4948911;28;20063;-49
2023/02/19 10:03:40;;;;;;;1.50;0.50;;;;;;;;;;4945440;29;20117;-50
2023/02/19 10:06:17;;;;;;;2.17;0.32;;;;;;;;;;4950469;29;20035;-49
2023/02/19 10:08:45;;;;;;;1.77;0.40;;;;;;;;;;4949002;29;20043;-51
2023/02/19 10:11:12;;;;;;;1.83;0.40;;;;;;;;;;4950489;28;20039;-53
2023/02/19 10:13:46;;;;;;;0.60;0.40;;;;;;;;;;4940058;28;20112;-49
2023/02/19 10:16:16;;;;;;;0.55;0.30;;;;;;;;;;4954997;28;20504;-53
2023/02/19 10:18:43;;;;;;;0.30;0.30;;;;;;;;;;4957684;28;20039;-47
2023/02/19 10:21:23;;;;;;;0.85;0.45;;;;;;;;;;4954230;28;20043;-49
2023/02/19 10:23:51;;;;;;;0.73;0.30;;;;;;;;;;4945558;28;20529;-51
2023/02/19 10:26:17;;;;;;;0.32;0.20;;;;;;;;;;4962627;28;20046;-52
2023/02/19 10:28:43;;;;;;;1.23;0.40;;;;;;;;;;4945839;28;20051;-53
2023/02/19 10:31:36;;;;;;;0.65;0.60;;;;;;;;;;4963332;28;20035;-51
2023/02/19 10:34:03;;;;;;;0.73;0.25;;;;;;;;;;4947631;28;20050;-50
2023/02/19 10:36:33;;;;;;;1.42;0.32;;;;;;;;;;4951681;28;20106;-52
2023/02/19 10:39:01;;;;;;;2.53;0.38;;;;;;;;;;4948655;28;20051;-52
2023/02/19 10:41:27;;;;;;;1.08;0.40;;;;;;;;;;4957284;28;20487;-49
2023/02/19 10:44:07;;;;;;;1.48;0.63;;;;;;;;;;4951881;28;20031;-52
2023/02/19 10:46:35;;;;;;;0.40;0.30;;;;;;;;;;4954331;28;20074;-52
2023/02/19 10:49:03;;;;;;;0.75;0.30;;;;;;;;;;4952368;28;20054;-51
2023/02/19 10:51:31;;;;;;;5.50;0.50;;;;;;;;;;4956788;28;20031;-52
2023/02/19 10:54:28;;;;;;;1.17;0.40;;;;;;;;;;4954405;28;20575;-53
2023/02/19 10:56:54;;;;;;;5.40;0.57;;;;;;;;;;4938754;28;20043;-49
2023/02/19 10:59:24;;;;;;;0.90;0.47;;;;;;;;;;4953901;28;20023;-49
2023/02/19 11:01:57;;;;;;;1.45;0.47;;;;;;;;;;4963869;28;20042;-51
2023/02/19 11:04:24;;;;;;;0.70;0.30;;;;;;;;;;4957816;28;20027;-50
2023/02/19 11:06:50;;;;;;;1.38;0.40;;;;;;;;;;4953182;28;20043;-47
2023/02/19 11:09:33;;;;;;;0.35;0.30;;;;;;;;;;4954208;28;20026;-48
2023/02/19 11:11:59;;;;;;;0.52;0.38;;;;;;;;;;4953637;28;20036;-51
2023/02/19 11:14:26;;;;;;;2.30;0.40;;;;;;;;;;4972486;28;20055;-50
2023/02/19 11:16:55;;;;;;;0.30;0.20;;;;;;;;;;4972123;28;20100;-52
2023/02/19 11:19:24;;;;;;;1.42;0.60;;;;;;;;;;4972805;28;20022;-51
2023/02/19 11:21:50;;;;;;;1.42;0.40;;;;;;;;;;4972092;28;20031;-51
2023/02/19 11:24:28;;;;;;;0.65;0.55;;;;;;;;;;4971610;28;20023;-49
2023/02/19 11:26:54;;;;;;;1.33;0.55;;;;;;;;;;4971395;28;20034;-50
2023/02/19 11:29:23;;;;;;;2.17;0.40;;;;;;;;;;4972083;28;20492;-53
2023/02/19 11:31:49;;;;;;;1.30;0.50;;;;;;;;;;4972102;28;20035;-47
2023/02/19 11:34:19;;;;;;;1.48;0.40;;;;;;;;;;4972004;28;20103;-47
2023/02/19 11:36:46;;;;;;;1.30;0.30;;;;;;;;;;4971391;28;20427;-50
2023/02/19 11:39:14;;;;;;;1.60;0.50;;;;;;;;;;4970534;28;20035;-48
2023/02/19 11:41:58;;;;;;;1.30;0.40;;;;;;;;;;4972345;28;20053;-48
2023/02/19 11:44:36;;;;;;;0.80;0.75;;;;;;;;;;4972070;28;20034;-48
2023/02/19 11:47:02;;;;;;;0.88;0.50;;;;;;;;;;4961208;28;20043;-48
2023/02/19 11:49:35;;;;;;;0.60;0.43;;;;;;;;;;4972289;28;20035;-51
2023/02/19 11:52:01;;;;;;;0.75;0.40;;;;;;;;;;4966534;28;20050;-48
2023/02/19 11:54:48;;;;;;;1.58;0.43;;;;;;;;;;4967033;28;20027;-49
2023/02/19 11:57:23;;;;;;;2.92;0.30;;;;;;;;;;4972362;28;20046;-51
2023/02/19 11:59:55;;;;;;;0.50;0.30;;;;;;;;;;4971291;28;20074;-48
2023/02/19 12:02:37;;;;;;;0.95;0.30;;;;;;;;;;4962206;28;20117;-51
2023/02/19 12:05:11;;;;;;;0.98;0.40;;;;;;;;;;4970960;28;20030;-49
2023/02/19 12:07:47;;;;;;;0.57;0.47;;;;;;;;;;4972415;28;20089;-48
2023/02/19 12:10:21;;;;;;;0.40;0.30;;;;;;;;;;4971792;28;20046;-47
2023/02/19 12:12:56;;;;;;;0.75;0.38;;;;;;;;;;4963781;28;20098;-51
2023/02/19 12:15:44;;;;;;;0.93;0.50;;;;;;;;;;4960011;28;20487;-48
2023/02/19 12:18:22;;;;;;;0.50;0.50;;;;;;;;;;4938382;28;20039;-48
2023/02/19 12:20:48;;;;;;;1.80;0.30;;;;;;;;;;4951563;28;20420;-52
2023/02/19 12:23:26;;;;;;;1.15;0.63;;;;;;;;;;4953345;28;20038;-50
2023/02/19 12:25:55;;;;;;;0.70;0.40;;;;;;;;;;4954107;28;20033;-52
2023/02/19 12:28:21;;;;;;;0.30;0.25;;;;;;;;;;4952872;28;20106;-52
2023/02/19 12:30:47;;;;;;;2.00;0.68;;;;;;;;;;4951457;28;20023;-49
2023/02/19 12:33:32;;;;;;;1.42;0.30;;;;;;;;;;4957398;28;20039;-49
2023/02/19 12:36:00;;;;;;;1.38;0.40;;;;;;;;;;4951946;28;20031;-48
2023/02/19 12:38:32;;;;;;;0.45;0.28;;;;;;;;;;4954070;28;20094;-50
2023/02/19 12:41:04;;;;;;;0.75;0.30;;;;;;;;;;4955166;28;20023;-52
2023/02/19 12:43:31;;;;;;;1.50;0.52;;;;;;;;;;4956847;28;20043;-52
2023/02/19 12:46:02;;;;;;;0.52;0.20;;;;;;;;;;4950585;28;20583;-49
2023/02/19 12:48:31;;;;;;;3.05;0.40;;;;;;;;;;4954302;28;20530;-52
2023/02/19 12:51:02;;;;;;;0.95;0.43;;;;;;;;;;4949691;28;20633;-49
2023/02/19 12:53:34;;;;;;;0.98;0.40;;;;;;;;;;4960783;28;20042;-50
2023/02/19 12:56:00;;;;;;;;;;;;;;;;;;4955741;28;20491;-49
2023/02/19 12:58:26;;;;;;;1.02;0.50;;;;;;;;;;4957059;28;19914;-52
2023/02/19 13:00:55;;;;;;;0.30;0.30;;;;;;;;;;4950892;28;20031;-51
2023/02/19 13:03:21;;;;;;;1.75;0.45;;;;;;;;;;4961658;28;20031;-48
2023/02/19 13:06:05;;;;;;;3.58;0.75;;;;;;;;;;4954959;28;20023;-51
2023/02/19 13:08:37;;;;;;;0.57;0.40;;;;;;;;;;4947338;28;20047;-48
2023/02/19 13:11:26;;;;;;;1.38;0.73;;;;;;;;;;4952536;28;20086;-48
2023/02/19 13:13:55;;;;;;;1.40;0.40;;;;;;;;;;4942610;29;20046;-49
2023/02/19 13:16:22;;;;;;;0.63;0.40;;;;;;;;;;4946822;28;20030;-49
2023/02/19 13:18:48;;;;;;;1.30;0.40;;;;;;;;;;4955254;28;20094;-49
2023/02/19 13:24:07;;;;;;;1.92;0.40;;;;;;;;;;4940675;28;20432;-47
2023/02/19 13:26:40;;;;;;;1.60;0.40;;;;;;;;;;4951987;29;20023;-47
2023/02/19 13:29:12;;;;;;;1.55;0.73;;;;;;;;;;4949725;29;20058;-49
2023/02/19 13:31:48;;;;;;;1.38;0.35;;;;;;;;;;4952791;29;20070;-52
2023/02/19 13:34:14;;;;;;;0.50;0.40;;;;;;;;;;4949983;28;20138;-47
2023/02/19 13:36:40;;;;;;;0.57;0.40;;;;;;;;;;4940618;28;20432;-48
2023/02/19 13:39:07;;;;;;;0.45;0.25;;;;;;;;;;4950805;28;20071;-46
2023/02/19 13:41:40;;;;;;;2.15;0.50;;;;;;;;;;4952287;28;20061;-46
2023/02/19 13:44:07;;;;;;;3.65;1.20;;;;;;;;;;4950417;28;20062;-47
2023/02/19 13:46:36;;;;;;;1.40;0.77;;;;;;;;;;4951732;28;20376;-49
2023/02/19 13:49:21;;;;;;;1.73;0.38;;;;;;;;;;4949962;28;20047;-47
2023/02/19 13:51:48;;;;;;;0.77;0.40;;;;;;;;;;4946973;28;20035;-48
2023/02/19 13:54:20;;;;;;;1.58;0.40;;;;;;;;;;4943535;28;20390;-50
2023/02/19 13:56:46;;;;;;;1.58;0.40;;;;;;;;;;4951424;28;20176;-47
2023/02/19 13:59:33;;;;;;;0.63;0.50;;;;;;;;;;4949833;28;20119;-50
2023/02/19 14:02:02;;;;;;;0.80;0.50;;;;;;;;;;4944479;28;20031;-51
2023/02/19 14:04:40;;;;;;;0.40;0.30;;;;;;;;;;4948856;28;20035;-50
2023/02/19 14:07:06;;;;;;;0.30;0.30;;;;;;;;;;4949359;28;20042;-52
2023/02/19 14:09:44;;;;;;;1.52;0.52;;;;;;;;;;4948751;28;20457;-47
2023/02/19 14:12:11;;;;;;;2.60;0.80;;;;;;;;;;4954471;28;20121;-52
2023/02/19 14:14:50;;;;;;;1.08;0.65;;;;;;;;;;4969882;28;20173;-48
2023/02/19 14:17:19;;;;;;;0.57;0.30;;;;;;;;;;4972318;28;20035;-51
2023/02/19 14:19:47;;;;;;;1.35;0.57;;;;;;;;;;4964686;28;20042;-51
2023/02/19 14:22:31;;;;;;;0.77;0.50;;;;;;;;;;4973597;28;20510;-46
2023/02/19 14:24:57;;;;;;;1.40;0.40;;;;;;;;;;4969986;28;20199;-47
2023/02/19 14:27:25;;;;;;;4.97;0.57;;;;;;;;;;4973607;28;20400;-50
2023/02/19 14:29:51;;;;;;;1.35;0.52;;;;;;;;;;4972123;28;20030;-50
2023/02/19 14:32:19;;;;;;;1.45;0.50;;;;;;;;;;4973309;28;20042;-50
2023/02/19 14:34:46;;;;;;;1.30;0.63;;;;;;;;;;4971564;28;20030;-48
2023/02/19 14:37:21;;;;;;;0.85;0.35;;;;;;;;;;4973342;28;20042;-48
2023/02/19 14:39:47;;;;;;;3.38;0.63;;;;;;;;;;4972180;28;20490;-53
2023/02/19 14:42:19;;;;;;;3.40;0.85;;;;;;;;;;4973446;28;20384;-49
2023/02/19 14:44:50;;;;;;;0.77;0.35;;;;;;;;;;4971497;28;20035;-48
2023/02/19 14:47:18;;;;;;;2.15;0.85;;;;;;;;;;4973622;28;20035;-51
2023/02/19 14:49:45;;;;;;;7.53;1.48;;;;;;;;;;4971505;28;20435;-53
2023/02/19 14:52:15;;;;;;;0.98;0.45;;;;;;;;;;4973648;28;20502;-52
2023/02/19 14:54:49;;;;;;;2.15;0.60;;;;;;;;;;4971440;28;20519;-49
2023/02/19 14:57:23;;;;;;;5.35;0.85;;;;;;;;;;4973128;28;20046;-49
2023/02/19 14:59:53;;;;;;;1.60;0.80;;;;;;;;;;4972110;28;20367;-47
2023/02/19 15:02:20;;;;;;;1.48;0.70;;;;;;;;;;4969867;28;20070;-48
2023/02/19 15:04:46;;;;;;;1.20;0.40;;;;;;;;;;4971858;28;20162;-47
2023/02/19 15:07:32;;;;;;;4.13;0.60;;;;;;;;;;4974115;28;20073;-47
2023/02/19 15:10:02;;;;;;;0.93;0.60;;;;;;;;;;4966291;28;20031;-47
2023/02/19 15:12:30;;;;;;;2.25;0.70;;;;;;;;;;4973451;28;20380;-48
2023/02/19 15:14:59;;;;;;;1.67;0.40;;;;;;;;;;4969515;28;20034;-50
2023/02/19 15:17:28;;;;;;;0.57;0.40;;;;;;;;;;4973987;28;20034;-45
2023/02/19 15:19:55;;;;;;;2.58;0.68;;;;;;;;;;4971286;28;20029;-47
2023/02/19 15:22:23;;;;;;;2.40;0.40;;;;;;;;;;4973719;28;20059;-46
2023/02/19 15:24:49;;;;;;;1.25;0.50;;;;;;;;;;4972337;28;20031;-47
2023/02/19 15:27:19;;;;;;;0.90;0.50;;;;;;;;;;4962644;28;20409;-45